sensor_id;sensor_type;location;lat;lon;timestamp;pressure;altitude;pressure_sealevel;temperature;humidity
54512;BME280;40419;47.438;19.026;2023-02-10T00:01:39;101974.34;;;-5.12;99.04
54512;BME280;40419;47.438;19.026;2023-02-10T00:04:05;101985.44;;;-5.01;100.00
54512;BME280;40419;47.438;19.026;2023-02-10T00:06:31;101991.63;;;-5.02;100.00
54512;BME280;40419;47.438;19.026;2023-02-10T00:08:59;101982.06;;;-4.79;100.00
54512;BME280;40419;47.438;19.026;2023-02-10T00:11:25;101978.84;;;-4.62;100.00
54512;BME280;40419;47.438;19.026;2023-02-10T00:14:14;101981.34;;;-4.57;99.90
54512;BME280;40419;47.438;19.026;2023-02-10T00:16:42;101982.88;;;-4.52;98.58
54512;BME280;40419;47.438;19.026;2023-02-10T00:19:13;101975.50;;;-4.42;98.64
54512;BME280;40419;47.438;19.026;2023-02-10T00:21:43;101982.25;;;-4.33;97.54
54512;BME280;40419;47.438;19.026;2023-02-10T00:24:11;101982.94;;;-4.28;96.80
54512;BME280;40419;47.438;19.026;2023-02-10T00:26:39;101984.41;;;-4.19;94.95
54512;BME280;40419;47.438;19.026;2023-02-10T00:29:05;101993.09;;;-4.16;94.42
54512;BME280;40419;47.438;19.026;2023-02-10T00:31:34;101988.13;;;-4.25;94.79
54512;BME280;40419;47.438;19.026;2023-02-10T00:34:02;101990.03;;;-4.29;95.35
54512;BME280;40419;47.438;19.026;2023-02-10T00:36:27;101981.38;;;-4.34;95.41
54512;BME280;40419;47.438;19.026;2023-02-10T00:38:55;101981.25;;;-4.31;94.79
54512;BME280;40419;47.438;19.026;2023-02-10T00:41:25;101983.28;;;-4.14;94.02
54512;BME280;40419;47.438;19.026;2023-02-10T00:43:53;101983.38;;;-3.92;92.69
54512;BME280;40419;47.438;19.026;2023-02-10T00:46:20;101981.94;;;-4.00;92.57
54512;BME280;40419;47.438;19.026;2023-02-10T00:48:46;101981.47;;;-4.12;94.05
54512;BME280;40419;47.438;19.026;2023-02-10T00:51:12;101986.72;;;-4.10;94.35
54512;BME280;40419;47.438;19.026;2023-02-10T00:53:38;101981.22;;;-4.29;93.74
54512;BME280;40419;47.438;19.026;2023-02-10T00:56:11;101982.25;;;-4.58;96.14
54512;BME280;40419;47.438;19.026;2023-02-10T00:58:39;101978.84;;;-4.37;96.38
54512;BME280;40419;47.438;19.026;2023-02-10T01:01:10;101980.25;;;-4.27;96.47
54512;BME280;40419;47.438;19.026;2023-02-10T01:03:39;101978.09;;;-4.40;97.41
54512;BME280;40419;47.438;19.026;2023-02-10T01:06:05;101981.97;;;-4.51;97.88
54512;BME280;40419;47.438;19.026;2023-02-10T01:08:36;101975.91;;;-4.53;98.08
54512;BME280;40419;47.438;19.026;2023-02-10T01:11:08;101976.06;;;-4.57;97.74
54512;BME280;40419;47.438;19.026;2023-02-10T01:13:38;101975.75;;;-4.24;96.67
54512;BME280;40419;47.438;19.026;2023-02-10T01:16:10;101969.44;;;-4.20;96.16
54512;BME280;40419;47.438;19.026;2023-02-10T01:18:43;101965.59;;;-4.12;95.03
54512;BME280;40419;47.438;19.026;2023-02-10T01:21:14;101956.59;;;-4.06;94.88
54512;BME280;40419;47.438;19.026;2023-02-10T01:23:42;101952.19;;;-4.07;95.40
54512;BME280;40419;47.438;19.026;2023-02-10T01:26:08;101951.34;;;-4.07;94.55
54512;BME280;40419;47.438;19.026;2023-02-10T01:28:36;101957.16;;;-3.98;93.40
54512;BME280;40419;47.438;19.026;2023-02-10T01:31:12;101953.22;;;-4.11;95.09
54512;BME280;40419;47.438;19.026;2023-02-10T01:33:43;101949.19;;;-4.45;95.50
54512;BME280;40419;47.438;19.026;2023-02-10T01:36:13;101958.72;;;-4.41;96.36
54512;BME280;40419;47.438;19.026;2023-02-10T01:38:39;101955.94;;;-4.38;96.18
54512;BME280;40419;47.438;19.026;2023-02-10T01:41:10;101958.06;;;-4.22;95.48
54512;BME280;40419;47.438;19.026;2023-02-10T01:46:22;101954.06;;;-4.09;92.59
54512;BME280;40419;47.438;19.026;2023-02-10T01:48:48;101952.25;;;-4.08;92.40
54512;BME280;40419;47.438;19.026;2023-02-10T01:51:15;101952.44;;;-4.13;92.98
54512;BME280;40419;47.438;19.026;2023-02-10T01:53:41;101950.06;;;-4.21;94.58
54512;BME280;40419;47.438;19.026;2023-02-10T01:56:13;101950.03;;;-4.45;95.07
54512;BME280;40419;47.438;19.026;2023-02-10T01:58:41;101949.38;;;-4.76;96.41
54512;BME280;40419;47.438;19.026;2023-02-10T02:01:08;101946.19;;;-4.61;95.88
54512;BME280;40419;47.438;19.026;2023-02-10T02:03:36;101952.50;;;-4.40;95.27
54512;BME280;40419;47.438;19.026;2023-02-10T02:06:04;101936.75;;;-4.43;94.99
54512;BME280;40419;47.438;19.026;2023-02-10T02:08:30;101951.06;;;-4.74;94.81
54512;BME280;40419;47.438;19.026;2023-02-10T02:16:27;101968.13;;;-5.66;98.90
54512;BME280;40419;47.438;19.026;2023-02-10T02:24:26;101963.19;;;-6.38;100.00
54512;BME280;40419;47.438;19.026;2023-02-10T02:32:21;101956.53;;;-6.51;100.00
54512;BME280;40419;47.438;19.026;2023-02-10T02:37:40;101949.31;;;-6.45;100.00
54512;BME280;40419;47.438;19.026;2023-02-10T02:40:08;101940.13;;;-6.00;100.00
54512;BME280;40419;47.438;19.026;2023-02-10T02:42:34;101944.03;;;-5.55;100.00
54512;BME280;40419;47.438;19.026;2023-02-10T02:45:07;101940.50;;;-5.27;100.00
54512;BME280;40419;47.438;19.026;2023-02-10T02:50:37;101942.53;;;-5.36;98.77
54512;BME280;40419;47.438;19.026;2023-02-10T02:53:46;101940.19;;;-6.33;98.63
54512;BME280;40419;47.438;19.026;2023-02-10T02:58:51;101942.06;;;-6.69;100.00
54512;BME280;40419;47.438;19.026;2023-02-10T03:04:09;101945.28;;;-6.91;100.00
54512;BME280;40419;47.438;19.026;2023-02-10T03:06:39;101943.28;;;-6.83;100.00
54512;BME280;40419;47.438;19.026;2023-02-10T03:09:10;101952.16;;;-7.20;100.00
54512;BME280;40419;47.438;19.026;2023-02-10T03:11:40;101947.69;;;-7.18;100.00
54512;BME280;40419;47.438;19.026;2023-02-10T03:14:08;101944.38;;;-6.57;100.00
54512;BME280;40419;47.438;19.026;2023-02-10T03:16:34;101952.13;;;-6.19;100.00
54512;BME280;40419;47.438;19.026;2023-02-10T03:18:59;101950.91;;;-6.08;100.00
54512;BME280;40419;47.438;19.026;2023-02-10T03:21:27;101950.63;;;-5.98;100.00
54512;BME280;40419;47.438;19.026;2023-02-10T03:23:53;101946.78;;;-5.88;100.00
54512;BME280;40419;47.438;19.026;2023-02-10T03:26:18;101940.75;;;-5.63;100.00
54512;BME280;40419;47.438;19.026;2023-02-10T03:28:45;101942.16;;;-5.52;100.00
54512;BME280;40419;47.438;19.026;2023-02-10T03:31:13;101946.28;;;-5.43;100.00
54512;BME280;40419;47.438;19.026;2023-02-10T03:33:38;101952.81;;;-5.26;98.35
54512;BME280;40419;47.438;19.026;2023-02-10T03:36:04;101943.94;;;-5.24;96.74
54512;BME280;40419;47.438;19.026;2023-02-10T03:38:32;101950.56;;;-5.12;96.43
54512;BME280;40419;47.438;19.026;2023-02-10T03:40:57;101949.22;;;-5.24;96.82
54512;BME280;40419;47.438;19.026;2023-02-10T03:43:23;101953.50;;;-5.21;96.28
54512;BME280;40419;47.438;19.026;2023-02-10T03:45:49;101937.00;;;-5.28;97.42
54512;BME280;40419;47.438;19.026;2023-02-10T03:48:14;101946.69;;;-5.28;97.28
54512;BME280;40419;47.438;19.026;2023-02-10T03:50:43;101944.88;;;-5.26;99.01
54512;BME280;40419;47.438;19.026;2023-02-10T03:53:11;101938.81;;;-5.30;97.95
54512;BME280;40419;47.438;19.026;2023-02-10T03:55:36;101939.91;;;-5.36;98.06
54512;BME280;40419;47.438;19.026;2023-02-10T03:58:02;101942.75;;;-5.42;99.85
54512;BME280;40419;47.438;19.026;2023-02-10T04:00:30;101927.59;;;-5.37;100.00
54512;BME280;40419;47.438;19.026;2023-02-10T04:02:58;101926.44;;;-5.28;100.00
54512;BME280;40419;47.438;19.026;2023-02-10T04:05:24;101916.31;;;-5.15;100.00
54512;BME280;40419;47.438;19.026;2023-02-10T04:07:49;101908.09;;;-5.06;99.86
54512;BME280;40419;47.438;19.026;2023-02-10T04:10:22;101905.91;;;-5.20;100.00
54512;BME280;40419;47.438;19.026;2023-02-10T04:12:48;101908.91;;;-5.04;100.00
54512;BME280;40419;47.438;19.026;2023-02-10T04:15:16;101907.59;;;-5.17;100.00
54512;BME280;40419;47.438;19.026;2023-02-10T04:17:44;101903.72;;;-5.07;99.30
54512;BME280;40419;47.438;19.026;2023-02-10T04:20:10;101902.16;;;-5.39;99.94
54512;BME280;40419;47.438;19.026;2023-02-10T04:22:37;101903.94;;;-5.68;100.00
54512;BME280;40419;47.438;19.026;2023-02-10T04:25:07;101913.59;;;-5.67;100.00
54512;BME280;40419;47.438;19.026;2023-02-10T04:27:35;101914.84;;;-5.79;100.00
54512;BME280;40419;47.438;19.026;2023-02-10T04:30:00;101912.91;;;-5.74;100.00
54512;BME280;40419;47.438;19.026;2023-02-10T04:32:26;101912.41;;;-5.57;100.00
54512;BME280;40419;47.438;19.026;2023-02-10T04:34:52;101920.69;;;-5.41;100.00
54512;BME280;40419;47.438;19.026;2023-02-10T04:37:20;101915.53;;;-6.00;100.00
54512;BME280;40419;47.438;19.026;2023-02-10T04:39:50;101921.94;;;-6.09;100.00
54512;BME280;40419;47.438;19.026;2023-02-10T04:42:15;101928.06;;;-6.38;100.00
54512;BME280;40419;47.438;19.026;2023-02-10T04:44:44;101935.25;;;-6.45;100.00
54512;BME280;40419;47.438;19.026;2023-02-10T04:47:09;101919.88;;;-6.61;100.00
54512;BME280;40419;47.438;19.026;2023-02-10T04:49:35;101929.66;;;-6.64;100.00
54512;BME280;40419;47.438;19.026;2023-02-10T04:52:00;101929.44;;;-6.56;100.00
54512;BME280;40419;47.438;19.026;2023-02-10T04:54:28;101936.72;;;-7.01;100.00
54512;BME280;40419;47.438;19.026;2023-02-10T04:57:00;101937.25;;;-6.86;100.00
54512;BME280;40419;47.438;19.026;2023-02-10T04:59:26;101939.78;;;-6.49;100.00
54512;BME280;40419;47.438;19.026;2023-02-10T05:01:56;101953.25;;;-6.60;100.00
54512;BME280;40419;47.438;19.026;2023-02-10T05:04:22;101955.50;;;-6.46;100.00
54512;BME280;40419;47.438;19.026;2023-02-10T05:06:51;101964.47;;;-6.20;100.00
54512;BME280;40419;47.438;19.026;2023-02-10T05:09:19;101961.78;;;-6.51;100.00
54512;BME280;40419;47.438;19.026;2023-02-10T05:11:47;101970.00;;;-6.97;100.00
54512;BME280;40419;47.438;19.026;2023-02-10T05:14:15;101972.31;;;-7.58;100.00
54512;BME280;40419;47.438;19.026;2023-02-10T05:16:40;101967.81;;;-7.53;100.00
54512;BME280;40419;47.438;19.026;2023-02-10T05:19:06;101971.09;;;-7.05;100.00
54512;BME280;40419;47.438;19.026;2023-02-10T05:21:33;101969.88;;;-6.57;100.00
54512;BME280;40419;47.438;19.026;2023-02-10T05:24:02;101979.19;;;-6.44;100.00
54512;BME280;40419;47.438;19.026;2023-02-10T05:26:30;101979.56;;;-6.27;100.00
54512;BME280;40419;47.438;19.026;2023-02-10T05:28:55;101975.53;;;-6.09;100.00
54512;BME280;40419;47.438;19.026;2023-02-10T05:31:21;101975.84;;;-5.90;100.00
54512;BME280;40419;47.438;19.026;2023-02-10T05:33:48;101975.00;;;-5.90;100.00
54512;BME280;40419;47.438;19.026;2023-02-10T05:36:14;101984.59;;;-5.88;100.00
54512;BME280;40419;47.438;19.026;2023-02-10T05:38:39;101991.13;;;-5.71;100.00
54512;BME280;40419;47.438;19.026;2023-02-10T05:41:25;101975.84;;;-5.90;100.00
54512;BME280;40419;47.438;19.026;2023-02-10T05:43:50;101977.59;;;-5.89;100.00
54512;BME280;40419;47.438;19.026;2023-02-10T05:46:16;101973.94;;;-5.84;100.00
54512;BME280;40419;47.438;19.026;2023-02-10T05:48:44;101979.72;;;-5.72;100.00
54512;BME280;40419;47.438;19.026;2023-02-10T05:51:18;101997.25;;;-5.69;100.00
54512;BME280;40419;47.438;19.026;2023-02-10T05:53:46;101988.16;;;-5.60;100.00
54512;BME280;40419;47.438;19.026;2023-02-10T05:56:11;101987.72;;;-5.45;100.00
54512;BME280;40419;47.438;19.026;2023-02-10T05:58:37;101981.84;;;-5.55;100.00
54512;BME280;40419;47.438;19.026;2023-02-10T06:01:06;101977.81;;;-5.66;100.00
54512;BME280;40419;47.438;19.026;2023-02-10T06:03:33;101980.75;;;-5.77;100.00
54512;BME280;40419;47.438;19.026;2023-02-10T06:05:59;101972.28;;;-5.59;100.00
54512;BME280;40419;47.438;19.026;2023-02-10T06:08:29;101978.34;;;-5.55;100.00
54512;BME280;40419;47.438;19.026;2023-02-10T06:10:55;101981.56;;;-5.75;100.00
54512;BME280;40419;47.438;19.026;2023-02-10T06:13:22;101981.16;;;-6.21;100.00
54512;BME280;40419;47.438;19.026;2023-02-10T06:15:48;101982.66;;;-6.11;100.00
54512;BME280;40419;47.438;19.026;2023-02-10T06:18:14;101989.44;;;-5.72;100.00
54512;BME280;40419;47.438;19.026;2023-02-10T06:20:41;101975.75;;;-5.57;100.00
54512;BME280;40419;47.438;19.026;2023-02-10T06:23:12;101990.19;;;-5.68;100.00
54512;BME280;40419;47.438;19.026;2023-02-10T06:25:38;101989.19;;;-5.64;100.00
54512;BME280;40419;47.438;19.026;2023-02-10T06:28:04;101990.94;;;-5.65;100.00
54512;BME280;40419;47.438;19.026;2023-02-10T06:30:32;101998.38;;;-5.48;100.00
54512;BME280;40419;47.438;19.026;2023-02-10T06:32:59;101983.91;;;-5.36;100.00
54512;BME280;40419;47.438;19.026;2023-02-10T06:35:25;101988.94;;;-5.28;100.00
54512;BME280;40419;47.438;19.026;2023-02-10T06:37:50;101994.72;;;-5.74;100.00
54512;BME280;40419;47.438;19.026;2023-02-10T06:40:16;102010.72;;;-6.41;100.00
54512;BME280;40419;47.438;19.026;2023-02-10T06:42:47;102010.66;;;-7.08;100.00
54512;BME280;40419;47.438;19.026;2023-02-10T06:45:15;102007.34;;;-6.46;100.00
54512;BME280;40419;47.438;19.026;2023-02-10T06:47:47;102019.06;;;-6.25;100.00
54512;BME280;40419;47.438;19.026;2023-02-10T06:50:17;102038.88;;;-6.43;100.00
54512;BME280;40419;47.438;19.026;2023-02-10T06:52:43;102045.72;;;-6.36;100.00
54512;BME280;40419;47.438;19.026;2023-02-10T06:55:09;102053.84;;;-6.44;100.00
54512;BME280;40419;47.438;19.026;2023-02-10T06:57:35;102053.94;;;-6.47;100.00
54512;BME280;40419;47.438;19.026;2023-02-10T07:00:06;102047.59;;;-6.07;100.00
54512;BME280;40419;47.438;19.026;2023-02-10T07:02:35;102040.38;;;-5.70;100.00
54512;BME280;40419;47.438;19.026;2023-02-10T07:05:02;102036.63;;;-5.33;100.00
54512;BME280;40419;47.438;19.026;2023-02-10T07:07:29;102034.84;;;-5.04;100.00
54512;BME280;40419;47.438;19.026;2023-02-10T07:09:55;102020.00;;;-4.80;100.00
54512;BME280;40419;47.438;19.026;2023-02-10T07:12:21;102020.19;;;-4.59;100.00
54512;BME280;40419;47.438;19.026;2023-02-10T07:14:47;102027.28;;;-4.35;100.00
54512;BME280;40419;47.438;19.026;2023-02-10T07:17:12;102026.75;;;-4.19;99.34
54512;BME280;40419;47.438;19.026;2023-02-10T07:19:38;102032.44;;;-4.06;99.52
54512;BME280;40419;47.438;19.026;2023-02-10T07:22:03;102029.09;;;-4.12;98.92
54512;BME280;40419;47.438;19.026;2023-02-10T07:24:34;102042.06;;;-4.54;99.22
54512;BME280;40419;47.438;19.026;2023-02-10T07:27:04;102042.81;;;-4.77;99.68
54512;BME280;40419;47.438;19.026;2023-02-10T07:29:30;102044.84;;;-4.86;100.00
54512;BME280;40419;47.438;19.026;2023-02-10T07:31:56;102044.53;;;-4.76;100.00
54512;BME280;40419;47.438;19.026;2023-02-10T07:34:25;102041.22;;;-4.83;100.00
54512;BME280;40419;47.438;19.026;2023-02-10T07:36:51;102049.38;;;-4.63;100.00
54512;BME280;40419;47.438;19.026;2023-02-10T07:39:21;102040.06;;;-4.74;100.00
54512;BME280;40419;47.438;19.026;2023-02-10T07:41:49;102049.31;;;-4.61;100.00
54512;BME280;40419;47.438;19.026;2023-02-10T07:44:19;102024.25;;;-4.49;100.00
54512;BME280;40419;47.438;19.026;2023-02-10T07:46:50;102027.00;;;-4.52;100.00
54512;BME280;40419;47.438;19.026;2023-02-10T07:49:16;102020.38;;;-4.66;100.00
54512;BME280;40419;47.438;19.026;2023-02-10T07:51:42;102020.09;;;-4.31;100.00
54512;BME280;40419;47.438;19.026;2023-02-10T07:54:08;102021.84;;;-4.06;100.00
54512;BME280;40419;47.438;19.026;2023-02-10T07:56:35;102028.56;;;-3.72;98.13
54512;BME280;40419;47.438;19.026;2023-02-10T07:59:03;102035.88;;;-3.56;97.69
54512;BME280;40419;47.438;19.026;2023-02-10T08:01:33;102039.72;;;-3.41;96.16
54512;BME280;40419;47.438;19.026;2023-02-10T08:04:03;102025.56;;;-3.17;94.94
54512;BME280;40419;47.438;19.026;2023-02-10T08:06:33;102034.28;;;-3.14;94.22
54512;BME280;40419;47.438;19.026;2023-02-10T08:09:01;102031.13;;;-3.01;94.58
54512;BME280;40419;47.438;19.026;2023-02-10T08:11:27;102030.97;;;-3.21;95.30
54512;BME280;40419;47.438;19.026;2023-02-10T08:13:55;102038.44;;;-3.08;94.04
54512;BME280;40419;47.438;19.026;2023-02-10T08:16:20;102052.88;;;-3.15;95.70
54512;BME280;40419;47.438;19.026;2023-02-10T08:18:48;102047.53;;;-3.14;96.80
54512;BME280;40419;47.438;19.026;2023-02-10T08:21:14;102044.31;;;-3.00;94.69
54512;BME280;40419;47.438;19.026;2023-02-10T08:23:39;102048.38;;;-2.91;93.33
54512;BME280;40419;47.438;19.026;2023-02-10T08:26:09;102058.09;;;-2.92;93.17
54512;BME280;40419;47.438;19.026;2023-02-10T08:28:38;102068.78;;;-2.93;94.00
54512;BME280;40419;47.438;19.026;2023-02-10T08:31:06;102060.09;;;-2.75;91.38
54512;BME280;40419;47.438;19.026;2023-02-10T08:33:36;102053.75;;;-2.50;92.75
54512;BME280;40419;47.438;19.026;2023-02-10T08:36:11;102070.06;;;-2.59;91.84
54512;BME280;40419;47.438;19.026;2023-02-10T08:38:37;102058.31;;;-2.54;90.91
54512;BME280;40419;47.438;19.026;2023-02-10T08:41:06;102056.75;;;-2.58;91.83
54512;BME280;40419;47.438;19.026;2023-02-10T08:43:35;102052.44;;;-2.40;91.30
54512;BME280;40419;47.438;19.026;2023-02-10T08:46:03;102051.38;;;-2.15;90.08
54512;BME280;40419;47.438;19.026;2023-02-10T08:48:29;102044.69;;;-2.24;90.58
54512;BME280;40419;47.438;19.026;2023-02-10T08:50:55;102045.41;;;-2.00;88.60
54512;BME280;40419;47.438;19.026;2023-02-10T08:53:21;102061.72;;;-2.09;89.31
54512;BME280;40419;47.438;19.026;2023-02-10T08:56:04;102058.59;;;-1.98;87.93
54512;BME280;40419;47.438;19.026;2023-02-10T08:58:35;102060.38;;;-1.78;88.12
54512;BME280;40419;47.438;19.026;2023-02-10T09:01:18;102060.19;;;-1.73;87.13
54512;BME280;40419;47.438;19.026;2023-02-10T09:03:49;102062.03;;;-1.75;87.32
54512;BME280;40419;47.438;19.026;2023-02-10T09:06:23;102064.06;;;-1.62;86.39
54512;BME280;40419;47.438;19.026;2023-02-10T09:08:50;102062.06;;;-1.56;86.36
54512;BME280;40419;47.438;19.026;2023-02-10T09:11:20;102049.91;;;-1.24;86.11
54512;BME280;40419;47.438;19.026;2023-02-10T09:13:49;102049.47;;;-1.15;83.82
54512;BME280;40419;47.438;19.026;2023-02-10T09:16:15;102049.91;;;-1.24;84.45
54512;BME280;40419;47.438;19.026;2023-02-10T09:18:40;102040.47;;;-0.93;82.91
54512;BME280;40419;47.438;19.026;2023-02-10T09:21:06;102041.91;;;-0.86;81.79
54512;BME280;40419;47.438;19.026;2023-02-10T09:23:35;102032.56;;;-0.95;81.89
54512;BME280;40419;47.438;19.026;2023-02-10T09:26:03;102044.50;;;-0.67;80.13
54512;BME280;40419;47.438;19.026;2023-02-10T09:28:31;102034.66;;;-0.65;80.45
54512;BME280;40419;47.438;19.026;2023-02-10T09:31:08;102044.91;;;-0.57;80.54
54512;BME280;40419;47.438;19.026;2023-02-10T09:33:37;102052.41;;;-0.65;79.76
54512;BME280;40419;47.438;19.026;2023-02-10T09:36:06;102046.88;;;-0.43;78.38
54512;BME280;40419;47.438;19.026;2023-02-10T09:38:32;102052.03;;;-0.58;78.31
54512;BME280;40419;47.438;19.026;2023-02-10T09:41:06;102048.47;;;-0.39;77.35
54512;BME280;40419;47.438;19.026;2023-02-10T09:55:16;102047.78;;;-0.09;75.37
54512;BME280;40419;47.438;19.026;2023-02-10T09:57:50;102036.84;;;-0.21;75.18
54512;BME280;40419;47.438;19.026;2023-02-10T10:00:24;102046.78;;;-0.07;75.25
54512;BME280;40419;47.438;19.026;2023-02-10T10:02:55;102044.66;;;0.00;73.41
54512;BME280;40419;47.438;19.026;2023-02-10T10:05:30;102039.88;;;0.07;72.93
54512;BME280;40419;47.438;19.026;2023-02-10T10:08:04;102034.28;;;0.11;73.11
54512;BME280;40419;47.438;19.026;2023-02-10T10:10:43;102035.94;;;0.14;72.06
54512;BME280;40419;47.438;19.026;2023-02-10T10:13:21;102030.28;;;0.20;72.41
54512;BME280;40419;47.438;19.026;2023-02-10T10:21:07;102027.47;;;0.23;71.44
54512;BME280;40419;47.438;19.026;2023-02-10T10:27:05;102024.06;;;0.53;68.33
54512;BME280;40419;47.438;19.026;2023-02-10T10:29:52;102031.69;;;0.43;70.80
54512;BME280;40419;47.438;19.026;2023-02-10T10:32:35;102039.72;;;0.59;69.44
54512;BME280;40419;47.438;19.026;2023-02-10T10:35:13;102025.69;;;0.56;68.94
54512;BME280;40419;47.438;19.026;2023-02-10T10:37:43;102039.00;;;0.56;68.77
54512;BME280;40419;47.438;19.026;2023-02-10T10:40:19;102033.50;;;0.43;69.60
54512;BME280;40419;47.438;19.026;2023-02-10T10:42:52;102031.81;;;0.58;68.45
54512;BME280;40419;47.438;19.026;2023-02-10T10:45:36;102016.63;;;0.42;68.55
54512;BME280;40419;47.438;19.026;2023-02-10T10:48:16;102017.09;;;0.50;68.36
54512;BME280;40419;47.438;19.026;2023-02-10T10:50:48;102023.44;;;0.48;68.77
54512;BME280;40419;47.438;19.026;2023-02-10T10:53:46;102014.25;;;0.53;68.21
54512;BME280;40419;47.438;19.026;2023-02-10T10:58:44;102014.69;;;0.62;67.02
54512;BME280;40419;47.438;19.026;2023-02-10T11:01:14;102009.00;;;0.52;65.51
54512;BME280;40419;47.438;19.026;2023-02-10T11:03:40;102001.53;;;0.43;68.11
54512;BME280;40419;47.438;19.026;2023-02-10T11:08:42;101990.19;;;0.55;68.79
54512;BME280;40419;47.438;19.026;2023-02-10T11:11:15;101972.47;;;0.38;68.90
54512;BME280;40419;47.438;19.026;2023-02-10T11:13:52;101965.66;;;0.32;69.01
54512;BME280;40419;47.438;19.026;2023-02-10T11:16:21;101953.56;;;0.43;69.29
54512;BME280;40419;47.438;19.026;2023-02-10T11:19:02;101961.78;;;0.54;69.39
54512;BME280;40419;47.438;19.026;2023-02-10T11:21:35;101960.09;;;0.53;69.43
54512;BME280;40419;47.438;19.026;2023-02-10T11:24:01;101953.72;;;0.72;68.20
54512;BME280;40419;47.438;19.026;2023-02-10T11:26:27;101959.13;;;0.70;68.30
54512;BME280;40419;47.438;19.026;2023-02-10T11:28:54;101972.09;;;0.76;68.60
54512;BME280;40419;47.438;19.026;2023-02-10T11:31:29;101967.63;;;0.77;68.48
54512;BME280;40419;47.438;19.026;2023-02-10T11:34:47;101975.09;;;0.86;67.19
54512;BME280;40419;47.438;19.026;2023-02-10T11:36:51;101967.97;;;0.70;68.23
54512;BME280;40419;47.438;19.026;2023-02-10T11:39:22;101969.53;;;0.75;68.52
54512;BME280;40419;47.438;19.026;2023-02-10T11:41:52;101965.97;;;0.90;68.52
54512;BME280;40419;47.438;19.026;2023-02-10T11:44:29;101969.16;;;0.97;68.30
54512;BME280;40419;47.438;19.026;2023-02-10T11:47:00;101964.50;;;1.00;67.17
54512;BME280;40419;47.438;19.026;2023-02-10T11:49:35;101949.69;;;0.95;67.43
54512;BME280;40419;47.438;19.026;2023-02-10T11:52:03;101947.81;;;0.97;67.41
54512;BME280;40419;47.438;19.026;2023-02-10T11:54:32;101951.44;;;0.96;66.77
54512;BME280;40419;47.438;19.026;2023-02-10T11:57:37;101939.75;;;0.98;65.59
54512;BME280;40419;47.438;19.026;2023-02-10T12:08:56;101919.59;;;1.23;65.67
54512;BME280;40419;47.438;19.026;2023-02-10T12:11:40;101913.06;;;0.98;66.29
54512;BME280;40419;47.438;19.026;2023-02-10T12:14:35;101902.66;;;1.24;64.31
54512;BME280;40419;47.438;19.026;2023-02-10T12:28:13;101896.13;;;1.14;65.05
54512;BME280;40419;47.438;19.026;2023-02-10T12:36:20;101886.25;;;1.30;64.32
54512;BME280;40419;47.438;19.026;2023-02-10T12:41:43;101875.25;;;1.20;62.93
54512;BME280;40419;47.438;19.026;2023-02-10T12:47:06;101865.66;;;1.18;63.36
54512;BME280;40419;47.438;19.026;2023-02-10T12:49:52;101883.38;;;1.19;63.83
54512;BME280;40419;47.438;19.026;2023-02-10T12:52:44;101878.44;;;1.27;63.24
54512;BME280;40419;47.438;19.026;2023-02-10T12:55:19;101866.41;;;1.20;63.84
54512;BME280;40419;47.438;19.026;2023-02-10T13:00:39;101881.47;;;1.21;63.87
54512;BME280;40419;47.438;19.026;2023-02-10T13:05:49;101878.34;;;1.29;63.18
54512;BME280;40419;47.438;19.026;2023-02-10T13:08:24;101886.44;;;1.27;63.65
54512;BME280;40419;47.438;19.026;2023-02-10T13:11:02;101889.13;;;1.41;62.91
54512;BME280;40419;47.438;19.026;2023-02-10T13:13:34;101893.00;;;1.36;63.50
54512;BME280;40419;47.438;19.026;2023-02-10T13:16:24;101902.91;;;1.19;63.58
54512;BME280;40419;47.438;19.026;2023-02-10T13:19:07;101891.09;;;1.23;62.74
54512;BME280;40419;47.438;19.026;2023-02-10T13:21:47;101884.25;;;1.19;64.72
54512;BME280;40419;47.438;19.026;2023-02-10T13:35:19;101874.59;;;1.17;64.40
54512;BME280;40419;47.438;19.026;2023-02-10T13:37:48;101873.91;;;1.13;63.99
54512;BME280;40419;47.438;19.026;2023-02-10T13:40:22;101868.66;;;1.12;63.95
54512;BME280;40419;47.438;19.026;2023-02-10T13:43:17;101882.59;;;1.17;65.44
54512;BME280;40419;47.438;19.026;2023-02-10T13:45:36;101880.69;;;1.19;65.72
54512;BME280;40419;47.438;19.026;2023-02-10T13:48:17;101878.03;;;1.19;65.90
54512;BME280;40419;47.438;19.026;2023-02-10T13:50:53;101864.22;;;1.27;64.45
54512;BME280;40419;47.438;19.026;2023-02-10T13:53:27;101871.75;;;1.34;64.26
54512;BME280;40419;47.438;19.026;2023-02-10T13:58:33;101862.53;;;1.54;63.99
54512;BME280;40419;47.438;19.026;2023-02-10T14:01:00;101869.47;;;1.57;63.21
54512;BME280;40419;47.438;19.026;2023-02-10T14:03:29;101865.22;;;1.54;62.62
54512;BME280;40419;47.438;19.026;2023-02-10T14:05:59;101875.41;;;1.62;63.08
54512;BME280;40419;47.438;19.026;2023-02-10T14:08:43;101867.59;;;1.59;63.02
54512;BME280;40419;47.438;19.026;2023-02-10T14:13:55;101872.72;;;1.76;63.47
54512;BME280;40419;47.438;19.026;2023-02-10T14:16:31;101871.88;;;1.76;63.10
54512;BME280;40419;47.438;19.026;2023-02-10T14:19:24;101879.69;;;1.79;62.43
54512;BME280;40419;47.438;19.026;2023-02-10T14:22:00;101878.06;;;1.76;63.02
54512;BME280;40419;47.438;19.026;2023-02-10T14:24:42;101876.34;;;1.61;63.80
54512;BME280;40419;47.438;19.026;2023-02-10T14:27:09;101874.38;;;1.65;63.17
54512;BME280;40419;47.438;19.026;2023-02-10T14:29:47;101868.84;;;1.68;62.41
54512;BME280;40419;47.438;19.026;2023-02-10T14:32:18;101878.19;;;1.61;62.57
54512;BME280;40419;47.438;19.026;2023-02-10T14:35:02;101877.50;;;1.57;63.35
54512;BME280;40419;47.438;19.026;2023-02-10T14:37:31;101876.16;;;1.64;62.70
54512;BME280;40419;47.438;19.026;2023-02-10T14:40:01;101876.63;;;1.56;62.54
54512;BME280;40419;47.438;19.026;2023-02-10T14:42:30;101881.78;;;1.59;62.90